Time;durP1;ratioP1;P1;durP2;ratioP2;P2;SDS_P1;SDS_P2;PMS_P1;PMS_P2;Temp;Humidity;BMP_temperature;BMP_pressure;BME280_temperature;BME280_humidity;BME280_pressure;Samples;Min_cycle;Max_cycle;Signal;HPM_P1;HPM_P2
2022/04/26 03:38:09;;;;;;;5.47;3.60;;;;;;;8.13;77.70;101820.81;5058804;28;20090;-79
2022/04/26 03:40:35;;;;;;;7.00;3.97;;;;;;;8.14;78.23;101819.91;5052831;28;20317;-79
2022/04/26 03:43:02;;;;;;;9.65;4.20;;;;;;;8.12;79.03;101826.03;5059066;28;20040;-79
2022/04/26 03:45:27;;;;;;;8.48;4.25;;;;;;;8.13;79.24;101827.75;5076450;28;20047;-79
2022/04/26 03:47:53;;;;;;;5.00;3.88;;;;;;;8.14;79.51;101827.72;5057119;28;20198;-79
2022/04/26 03:50:18;;;;;;;8.27;4.10;;;;;;;8.16;79.59;101831.19;5053953;28;20024;-79
2022/04/26 03:52:44;;;;;;;6.97;4.30;;;;;;;8.15;79.99;101836.41;5050008;28;20103;-80
2022/04/26 03:55:09;;;;;;;6.63;4.53;;;;;;;8.16;79.96;101836.41;5047524;28;20304;-80
2022/04/26 03:57:34;;;;;;;9.20;4.68;;;;;;;8.13;80.43;101841.69;5058788;28;20041;-79
2022/04/26 04:00:00;;;;;;;7.57;4.35;;;;;;;8.10;80.63;101841.72;5058494;28;20250;-79
2022/04/26 04:02:25;;;;;;;8.65;4.28;;;;;;;8.12;80.68;101836.47;5053489;28;20041;-79
2022/04/26 04:04:51;;;;;;;7.45;5.18;;;;;;;8.10;81.00;101833.03;5074290;28;20047;-79
2022/04/26 04:07:16;;;;;;;6.63;4.75;;;;;;;8.12;81.10;101836.47;5065258;28;20045;-79
2022/04/26 04:09:41;;;;;;;7.80;4.85;;;;;;;8.12;81.44;101839.94;5014083;28;20028;-79
2022/04/26 04:12:07;;;;;;;10.52;5.32;;;;;;;8.10;81.18;101830.44;5076904;28;20059;-79
2022/04/26 04:14:33;;;;;;;8.93;4.70;;;;;;;8.09;81.35;101842.59;5076607;28;20041;-79
2022/04/26 04:16:58;;;;;;;6.90;4.95;;;;;;;8.08;81.41;101836.53;5076678;28;20032;-80
2022/04/26 04:19:25;;;;;;;7.32;4.47;;;;;;;8.11;81.28;101842.56;5047413;28;20402;-80
2022/04/26 04:21:51;;;;;;;9.77;5.32;;;;;;;8.11;81.26;101850.41;5057684;28;20518;-80
2022/04/26 04:24:18;;;;;;;10.75;5.40;;;;;;;8.05;81.47;101848.75;5058195;28;20173;-80
2022/04/26 04:26:43;;;;;;;10.60;6.25;;;;;;;8.07;81.24;101854.78;5053005;28;20052;-79
2022/04/26 04:29:10;;;;;;;13.13;4.97;;;;;;;8.04;81.45;101849.63;5056805;28;20297;-80
2022/04/26 04:31:36;;;;;;;11.88;5.43;;;;;;;7.95;82.06;101855.84;5073744;28;20039;-80
2022/04/26 04:34:02;;;;;;;8.43;5.30;;;;;;;7.93;82.07;101854.13;5056030;28;20236;-79
2022/04/26 04:36:27;;;;;;;8.40;5.53;;;;;;;7.93;81.98;101870.66;5056341;28;20033;-79
2022/04/26 04:38:53;;;;;;;8.45;5.70;;;;;;;7.95;81.90;101868.00;5055810;28;20034;-80
2022/04/26 04:41:19;;;;;;;10.02;4.90;;;;;;;8.01;81.78;101870.56;5039367;28;20053;-79
2022/04/26 04:43:44;;;;;;;7.75;5.13;;;;;;;7.99;81.74;101875.78;5042266;28;20120;-79
2022/04/26 04:46:10;;;;;;;11.43;5.28;;;;;;;8.01;81.45;101886.19;5051229;28;20228;-80
2022/04/26 04:48:35;;;;;;;9.95;5.43;;;;;;;7.97;81.65;101884.53;5070427;28;20122;-79
2022/04/26 04:51:01;;;;;;;8.90;5.22;;;;;;;7.94;81.70;101887.16;5035753;28;20044;-79
2022/04/26 04:53:26;;;;;;;9.05;5.20;;;;;;;7.97;81.60;101892.34;5078210;28;20108;-79
2022/04/26 04:55:51;;;;;;;9.07;5.60;;;;;;;7.94;81.56;101900.22;5060267;28;20044;-79
2022/04/26 04:58:17;;;;;;;9.63;5.40;;;;;;;7.86;81.78;101900.31;5059702;28;20052;-79
2022/04/26 05:00:42;;;;;;;8.77;5.40;;;;;;;7.84;81.62;101902.03;5077819;28;20028;-80
2022/04/26 05:03:08;;;;;;;11.23;5.15;;;;;;;7.84;81.80;101907.25;5078484;28;20044;-79
2022/04/26 05:05:33;;;;;;;9.07;5.82;;;;;;;7.77;82.12;101914.31;5078103;28;20039;-79
2022/04/26 05:07:58;;;;;;;8.48;5.28;;;;;;;7.79;82.08;101911.69;5077530;28;20081;-80
2022/04/26 05:10:25;;;;;;;12.55;5.35;;;;;;;7.82;81.87;101919.47;5042568;28;20518;-79
2022/04/26 05:12:50;;;;;;;11.13;5.40;;;;;;;7.82;81.65;101920.34;5039539;28;20064;-80
2022/04/26 05:15:16;;;;;;;11.63;6.03;;;;;;;7.80;81.81;101922.09;5076715;28;20040;-79
2022/04/26 05:17:41;;;;;;;12.20;5.18;;;;;;;7.81;81.54;101928.19;5055876;28;20100;-79
2022/04/26 05:20:08;;;;;;;10.45;5.10;;;;;;;7.79;81.62;101930.81;5043032;28;20082;-80
2022/04/26 05:24:53;;;;;;;5.78;4.53;;;;;;;7.80;81.76;101929.91;5059296;28;20040;-80
2022/04/26 05:25:19;;;;;;;17.95;5.45;;;;;;;7.76;81.86;101941.25;5077659;28;20031;-80
2022/04/26 05:27:44;;;;;;;9.18;5.80;;;;;;;7.72;82.08;101936.97;5075843;28;20032;-80
2022/04/26 05:30:10;;;;;;;8.77;5.22;;;;;;;7.74;81.94;101936.97;5050233;28;20115;-80
2022/04/26 05:32:35;;;;;;;8.57;4.88;;;;;;;7.64;82.30;101938.78;5057647;28;20044;-80
2022/04/26 05:35:02;;;;;;;10.63;5.75;;;;;;;7.72;82.07;101942.19;5037423;28;20032;-80
2022/04/26 05:37:31;;;;;;;9.48;4.95;;;;;;;7.69;82.17;101943.09;5041152;28;20032;-80
2022/04/26 05:39:59;;;;;;;8.57;5.15;;;;;;;7.71;82.12;101940.44;5072109;28;20055;-80
2022/04/26 05:42:25;;;;;;;6.30;4.63;;;;;;;7.75;82.14;101942.16;5067967;28;20040;-80
2022/04/26 05:44:50;;;;;;;6.90;4.95;;;;;;;7.76;81.87;101950.84;5073224;28;20036;-79
2022/04/26 05:47:15;;;;;;;13.50;5.03;;;;;;;7.80;81.77;101952.53;5031097;28;20059;-79
2022/04/26 05:49:41;;;;;;;9.80;4.97;;;;;;;7.71;81.92;101950.88;5047961;28;20032;-79
2022/04/26 05:52:06;;;;;;;10.75;5.78;;;;;;;7.71;82.29;101950.88;5032974;28;20304;-79
2022/04/26 05:54:32;;;;;;;8.77;5.45;;;;;;;7.67;82.34;101957.88;5077363;28;20028;-79
2022/04/26 05:56:58;;;;;;;9.75;5.40;;;;;;;7.68;82.27;101962.22;5077525;28;20213;-79
2022/04/26 05:59:24;;;;;;;7.43;4.78;;;;;;;7.71;82.25;101956.09;5056671;28;20043;-79
2022/04/26 06:01:51;;;;;;;10.27;5.50;;;;;;;7.73;82.35;101962.19;5076809;28;20071;-79
2022/04/26 06:04:16;;;;;;;13.00;4.85;;;;;;;7.65;82.68;101964.00;5059134;28;20051;-79
2022/04/26 06:06:42;;;;;;;12.00;5.30;;;;;;;7.63;82.53;101966.59;5077165;28;20092;-79
2022/04/26 06:09:08;;;;;;;11.90;4.78;;;;;;;7.66;82.55;101970.94;5054762;28;20029;-79
2022/04/26 06:11:33;;;;;;;12.02;5.57;;;;;;;7.71;82.60;101965.66;5057675;28;20039;-79
2022/04/26 06:14:00;;;;;;;11.80;5.70;;;;;;;7.70;82.88;101972.63;5059255;28;20048;-79
2022/04/26 06:16:26;;;;;;;7.72;5.35;;;;;;;7.65;82.97;101966.59;5058614;28;20336;-79
2022/04/26 06:18:51;;;;;;;8.70;4.95;;;;;;;7.67;82.92;101960.47;5076873;28;20037;-79
2022/04/26 06:21:17;;;;;;;8.55;5.80;;;;;;;7.68;82.79;101962.22;5032722;28;20032;-79
2022/04/26 06:23:42;;;;;;;12.50;5.07;;;;;;;7.63;83.14;101963.16;5036650;28;20033;-79
2022/04/26 06:26:08;;;;;;;9.55;4.68;;;;;;;7.63;83.07;101963.16;5076266;28;20118;-79
2022/04/26 06:28:33;;;;;;;8.05;5.05;;;;;;;7.68;82.85;101966.56;5055701;28;20070;-79
2022/04/26 06:31:00;;;;;;;12.48;5.22;;;;;;;7.78;82.59;101970.78;5058496;28;20044;-79
2022/04/26 06:33:25;;;;;;;18.80;6.25;;;;;;;7.77;82.46;101974.28;5060920;28;20228;-79
2022/04/26 06:35:50;;;;;;;15.05;5.82;;;;;;;7.84;82.11;101978.56;5073433;28;20028;-79
2022/04/26 06:38:19;;;;;;;11.52;4.53;;;;;;;7.79;82.14;101977.75;5068025;28;20340;-79
2022/04/26 06:40:47;;;;;;;15.57;4.53;;;;;;;7.78;82.12;101989.03;5042078;28;20087;-79
2022/04/26 06:43:13;;;;;;;15.13;5.05;;;;;;;7.80;81.90;101982.06;5053969;28;20044;-79
2022/04/26 06:45:38;;;;;;;7.15;4.32;;;;;;;7.82;82.22;101988.16;5073277;28;20032;-79
2022/04/26 06:48:08;;;;;;;7.25;4.47;;;;;;;7.77;82.03;101995.16;5076370;28;20040;-79
2022/04/26 06:50:34;;;;;;;8.73;4.22;;;;;;;7.84;82.21;101993.31;5055848;28;20040;-80
2022/04/26 06:52:59;;;;;;;6.32;4.10;;;;;;;7.90;81.86;101998.50;5073242;28;20048;-80
2022/04/26 06:55:24;;;;;;;15.88;4.57;;;;;;;7.87;81.91;102003.75;5075668;28;20288;-79
2022/04/26 06:57:50;;;;;;;10.70;4.45;;;;;;;7.88;81.98;102001.13;5038223;28;20429;-80
2022/04/26 07:00:16;;;;;;;8.63;4.68;;;;;;;7.91;82.38;102010.63;5074504;28;20072;-79
2022/04/26 07:02:41;;;;;;;12.40;4.57;;;;;;;7.93;81.96;102010.63;5056278;28;20355;-79
2022/04/26 07:05:07;;;;;;;8.05;4.53;;;;;;;7.97;81.85;102009.75;5055746;28;20105;-79
2022/04/26 07:07:33;;;;;;;15.40;4.55;;;;;;;7.97;81.50;102009.75;5049199;28;20082;-80
2022/04/26 07:09:59;;;;;;;8.13;4.50;;;;;;;7.99;81.52;102010.56;5034594;28;20028;-80
2022/04/26 07:12:24;;;;;;;7.22;4.22;;;;;;;7.98;81.40;102019.28;5057391;28;20347;-79
2022/04/26 07:14:49;;;;;;;11.98;4.05;;;;;;;7.99;81.42;102021.88;5052998;28;20274;-80
2022/04/26 07:17:17;;;;;;;8.07;3.85;;;;;;;8.03;81.22;102025.31;5008516;28;20032;-79
2022/04/26 07:19:42;;;;;;;7.20;3.83;;;;;;;8.07;81.04;102029.59;5055833;28;20040;-79
2022/04/26 07:22:09;;;;;;;16.02;6.43;;;;;;;8.10;80.59;102018.28;5058089;28;20049;-80
2022/04/26 07:24:35;;;;;;;6.45;3.97;;;;;;;8.10;80.05;102029.56;5056251;28;20036;-79
2022/04/26 07:27:01;;;;;;;15.75;4.35;;;;;;;8.11;80.03;102027.81;5041037;28;20040;-79
2022/04/26 07:29:27;;;;;;;15.57;4.28;;;;;;;8.15;79.68;102025.19;5064858;28;20043;-79
2022/04/26 07:31:52;;;;;;;15.50;4.65;;;;;;;8.19;79.91;102021.63;5056317;28;20044;-80
2022/04/26 07:34:20;;;;;;;13.25;4.85;;;;;;;8.23;79.35;102023.31;5056833;28;20036;-80
2022/04/26 07:36:47;;;;;;;6.37;4.17;;;;;;;8.31;79.08;102025.84;5057724;28;20044;-79
2022/04/26 07:39:14;;;;;;;8.32;4.68;;;;;;;8.41;79.41;102029.22;5063993;28;20025;-79
2022/04/26 07:41:39;;;;;;;14.00;4.78;;;;;;;8.48;78.92;102030.00;5034390;28;20044;-79
2022/04/26 07:44:04;;;;;;;10.45;4.63;;;;;;;8.57;78.06;102028.16;5040149;28;20104;-79
2022/04/26 07:46:30;;;;;;;9.65;4.80;;;;;;;8.61;77.39;102032.44;5066982;28;20047;-79
2022/04/26 07:48:55;;;;;;;7.43;4.57;;;;;;;8.66;77.04;102019.34;5053145;28;20035;-80
2022/04/26 07:51:21;;;;;;;7.00;5.03;;;;;;;8.68;76.43;102027.13;5069095;28;20050;-80
2022/04/26 07:53:47;;;;;;;8.68;4.60;;;;;;;8.73;76.53;102025.31;5073604;28;20032;-80
2022/04/26 07:56:15;;;;;;;8.15;4.75;;;;;;;8.74;76.32;102033.16;5039638;28;20021;-80
2022/04/26 07:58:40;;;;;;;8.95;4.10;;;;;;;8.78;76.51;102039.19;5052648;28;20044;-79
2022/04/26 08:01:06;;;;;;;8.98;4.38;;;;;;;8.85;76.37;102038.22;5069018;28;20059;-79
2022/04/26 08:03:35;;;;;;;11.57;4.32;;;;;;;8.90;75.41;102035.56;5065398;28;20437;-80
2022/04/26 08:06:01;;;;;;;8.15;4.22;;;;;;;8.90;73.83;102031.19;5047633;28;20308;-80
2022/04/26 08:08:26;;;;;;;10.48;4.50;;;;;;;8.95;73.42;102033.72;5058564;28;20036;-79
2022/04/26 08:10:52;;;;;;;5.07;3.95;;;;;;;9.02;74.08;102053.66;5057167;28;20165;-80
2022/04/26 08:13:17;;;;;;;11.15;4.68;;;;;;;9.05;72.73;102045.78;5075192;28;20040;-79
2022/04/26 08:15:43;;;;;;;14.85;4.43;;;;;;;9.05;71.70;102053.59;5039113;28;20124;-79
2022/04/26 08:18:09;;;;;;;13.55;4.10;;;;;;;9.07;71.51;102061.44;5057332;28;20040;-80
2022/04/26 08:20:35;;;;;;;8.57;4.15;;;;;;;9.10;70.59;102059.63;5072182;28;20028;-79
2022/04/26 08:23:02;;;;;;;7.53;3.80;;;;;;;9.12;70.76;102057.84;5034228;28;20048;-80
2022/04/26 08:28:11;;;;;;;10.60;4.30;;;;;;;9.13;69.38;102061.31;5079430;28;20414;-80
2022/04/26 08:30:37;;;;;;;5.82;3.72;;;;;;;9.19;69.61;102069.09;5041783;28;20036;-80
2022/04/26 08:33:02;;;;;;;3.72;3.40;;;;;;;9.22;68.81;102069.91;5067909;28;20241;-80
2022/04/26 08:35:28;;;;;;;6.53;4.00;;;;;;;9.23;68.72;102074.22;5078596;28;20367;-79
2022/04/26 08:37:53;;;;;;;8.30;3.83;;;;;;;9.25;68.80;102068.13;5061740;28;20400;-80
2022/04/26 08:40:19;;;;;;;12.43;4.10;;;;;;;9.30;68.94;102066.31;5077706;28;20291;-80
2022/04/26 08:42:46;;;;;;;53.42;6.07;;;;;;;9.38;69.52;102069.66;5079953;28;20052;-80
2022/04/26 08:45:15;;;;;;;11.45;4.00;;;;;;;9.42;67.76;102073.94;5063818;28;20058;-80
2022/04/26 08:53:15;;;;;;;8.43;3.53;;;;;;;9.60;67.23;102078.00;5075076;28;20110;-79
2022/04/26 08:55:45;;;;;;;7.40;3.58;;;;;;;9.69;66.16;102083.09;5070113;28;20040;-80
2022/04/26 08:58:13;;;;;;;9.55;3.30;;;;;;;9.69;65.38;102079.59;5060092;28;20042;-80
2022/04/26 09:00:40;;;;;;;3.95;3.55;;;;;;;9.70;65.38;102087.44;5061920;28;20044;-80
2022/04/26 09:03:11;;;;;;;9.75;3.33;;;;;;;9.66;64.53;102085.78;5070219;28;20060;-80
2022/04/26 09:05:37;;;;;;;6.72;3.90;;;;;;;9.72;66.06;102083.03;5067940;28;20236;-80
2022/04/26 09:08:23;;;;;;;4.47;3.10;;;;;;;9.82;63.93;102085.50;5058257;28;20323;-80
2022/04/26 09:10:50;;;;;;;5.97;3.25;;;;;;;9.87;64.53;102102.84;5076873;28;20259;-80
2022/04/26 09:13:17;;;;;;;5.35;2.92;;;;;;;9.85;63.20;102095.91;5079014;28;20310;-80
2022/04/26 09:15:56;;;;;;;6.15;3.25;;;;;;;9.81;63.25;102095.09;5078957;28;20063;-80
2022/04/26 09:18:26;;;;;;;;;;;;;;;9.89;64.29;102092.34;5061041;28;20025;-80
2022/04/26 09:20:54;;;;;;;5.93;3.13;;;;;;;10.01;64.17;102091.28;5076618;28;19916;-80
2022/04/26 09:23:22;;;;;;;7.18;3.55;;;;;;;10.11;64.94;102101.53;5073787;28;20040;-80
2022/04/26 09:25:52;;;;;;;3.58;2.80;;;;;;;10.18;63.67;102103.13;5078161;28;20055;-80
2022/04/26 09:28:22;;;;;;;8.07;2.85;;;;;;;10.16;61.97;102107.53;5058531;28;20032;-79
2022/04/26 09:30:48;;;;;;;6.13;2.90;;;;;;;10.08;61.59;102111.22;5057447;28;20362;-80
2022/04/26 09:33:30;;;;;;;3.55;2.97;;;;;;;10.07;61.33;102109.47;5056037;28;20040;-79
2022/04/26 09:36:01;;;;;;;3.83;2.80;;;;;;;10.10;61.89;102115.50;5057896;28;20104;-80
2022/04/26 09:38:29;;;;;;;6.15;2.65;;;;;;;10.16;61.08;102115.38;5074619;28;20036;-80
2022/04/26 09:41:00;;;;;;;3.53;3.07;;;;;;;10.22;60.47;102116.16;5044279;28;20084;-79
2022/04/26 09:43:26;;;;;;;5.38;2.60;;;;;;;10.27;59.48;102117.81;5069971;28;20525;-80
2022/04/26 09:45:57;;;;;;;4.20;2.58;;;;;;;10.27;60.36;102112.56;5059068;28;20357;-80
2022/04/26 09:48:35;;;;;;;5.45;2.38;;;;;;;10.34;59.94;102121.22;5067642;28;20044;-80
2022/04/26 09:51:04;;;;;;;3.95;2.70;;;;;;;10.35;60.47;102121.19;5066161;28;20044;-80
2022/04/26 09:53:32;;;;;;;;;;;;;;;10.32;59.79;102123.00;5048754;28;20082;-80
2022/04/26 09:56:01;;;;;;;5.05;2.60;;;;;;;10.27;59.10;102120.44;5056242;28;19960;-80
2022/04/26 09:58:27;;;;;;;;;;;;;;;10.22;58.98;102124.03;5055510;28;20036;-79
2022/04/26 10:00:55;;;;;;;2.92;2.28;;;;;;;10.14;58.86;102121.56;5076238;28;19916;-80
2022/04/26 10:03:25;;;;;;;3.15;2.38;;;;;;;10.16;58.88;102120.63;5071494;28;20320;-80
2022/04/26 10:06:02;;;;;;;2.85;2.10;;;;;;;10.19;59.21;102115.34;5052846;28;20103;-80
2022/04/26 10:08:30;;;;;;;4.35;2.78;;;;;;;10.25;58.76;102114.38;5052000;28;20024;-80
2022/04/26 10:10:56;;;;;;;4.50;2.30;;;;;;;10.36;58.66;102117.66;5069240;28;20036;-80
2022/04/26 10:13:31;;;;;;;2.75;2.08;;;;;;;10.48;58.50;102116.56;5053912;28;20230;-80
2022/04/26 10:16:04;;;;;;;4.05;2.50;;;;;;;10.52;56.05;102125.22;5053459;28;20086;-80
2022/04/26 10:18:34;;;;;;;3.03;2.45;;;;;;;10.64;59.85;102124.09;5055368;28;21147;-80
2022/04/26 10:21:01;;;;;;;7.30;2.97;;;;;;;10.70;63.00;102134.47;5076799;28;20275;-80
2022/04/26 10:23:26;;;;;;;10.32;3.08;;;;;;;10.74;63.15;102123.88;5073529;28;20376;-80
2022/04/26 10:26:10;;;;;;;4.32;2.80;;;;;;;10.74;63.16;102133.53;5072377;28;20040;-80
2022/04/26 10:28:50;;;;;;;5.95;3.10;;;;;;;10.71;62.69;102131.84;5068797;28;20029;-80
2022/04/26 10:31:20;;;;;;;3.10;2.42;;;;;;;10.67;62.35;102138.00;5075810;28;20055;-80
2022/04/26 10:33:46;;;;;;;9.05;2.70;;;;;;;10.57;59.64;102124.25;5040997;28;20033;-80
2022/04/26 10:36:21;;;;;;;4.00;2.15;;;;;;;10.57;57.89;102132.09;5068035;28;20378;-80
2022/04/26 10:39:09;;;;;;;1.95;1.40;;;;;;;10.50;52.85;102135.75;5075374;28;20064;-79
2022/04/26 10:41:44;;;;;;;2.50;2.10;;;;;;;10.56;53.49;102126.88;5020277;28;20336;-80
2022/04/26 10:44:26;;;;;;;5.10;2.22;;;;;;;10.68;54.43;102133.66;5077188;28;20044;-80
2022/04/26 10:46:55;;;;;;;4.30;2.03;;;;;;;10.73;55.59;102130.03;5071319;28;20324;-80
2022/04/26 10:49:29;;;;;;;5.18;2.55;;;;;;;10.84;57.88;102128.94;5059600;28;20051;-79
2022/04/26 10:51:56;;;;;;;4.88;2.70;;;;;;;10.89;58.56;102135.81;5075251;28;20091;-80
2022/04/26 10:54:58;;;;;;;7.07;2.70;;;;;;;10.93;59.57;102133.97;5065709;28;20042;-80
2022/04/26 10:57:31;;;;;;;3.75;2.50;;;;;;;11.01;59.89;102139.09;5074650;28;20025;-80
2022/04/26 10:59:59;;;;;;;6.20;2.47;;;;;;;10.97;57.26;102143.53;5074873;28;20070;-80
2022/04/26 11:02:27;;;;;;;3.08;2.42;;;;;;;10.91;57.93;102136.66;5051599;28;20356;-80
2022/04/26 11:05:04;;;;;;;5.35;2.65;;;;;;;10.92;60.39;102138.38;5059202;28;20024;-80
2022/04/26 11:07:29;;;;;;;3.00;2.67;;;;;;;10.97;60.38;102140.91;5058848;28;20123;-80
2022/04/26 11:09:59;;;;;;;6.03;3.58;;;;;;;11.02;60.21;102146.03;5068688;28;20040;-79
2022/04/26 11:12:31;;;;;;;4.25;2.80;;;;;;;11.06;61.36;102140.69;5067757;28;20042;-80
2022/04/26 11:14:58;;;;;;;9.68;4.65;;;;;;;11.01;62.56;102142.56;5076513;28;20108;-80
2022/04/26 11:17:24;;;;;;;5.53;3.10;;;;;;;11.03;62.99;102148.63;5055202;28;20260;-80
2022/04/26 11:19:51;;;;;;;4.93;3.10;;;;;;;11.02;62.20;102146.03;5044923;28;20032;-79
2022/04/26 11:22:18;;;;;;;4.10;2.58;;;;;;;11.02;62.65;102151.28;5075338;28;20091;-80
2022/04/26 11:30:56;;;;;;;8.20;2.90;;;;;;;11.00;63.05;102160.94;5060991;28;20094;-80
2022/04/26 11:33:22;;;;;;;3.92;2.75;;;;;;;11.04;62.75;102163.47;5011620;28;20073;-80
2022/04/26 11:35:55;;;;;;;10.48;3.20;;;;;;;11.06;63.06;102163.41;5053786;28;20071;-80
2022/04/26 11:38:22;;;;;;;5.63;2.80;;;;;;;11.18;63.82;102167.53;5076857;28;20056;-80
2022/04/26 11:40:51;;;;;;;6.03;3.05;;;;;;;11.20;62.82;102171.84;5046983;28;20259;-80
2022/04/26 11:43:18;;;;;;;4.32;2.70;;;;;;;11.25;62.67;102170.00;5054675;28;20040;-80
2022/04/26 11:45:48;;;;;;;4.88;3.03;;;;;;;11.29;62.23;102176.88;5069959;28;20380;-80
2022/04/26 11:48:16;;;;;;;6.00;3.30;;;;;;;11.28;61.78;102163.81;5075859;28;20036;-80
2022/04/26 11:50:43;;;;;;;8.05;2.80;;;;;;;11.36;62.51;102179.38;5052752;28;20020;-80
2022/04/26 11:53:11;;;;;;;4.03;2.75;;;;;;;11.38;61.33;102175.81;5070466;28;20328;-80
2022/04/26 11:55:38;;;;;;;2.80;2.60;;;;;;;11.40;60.79;102183.66;5032945;28;20032;-80
2022/04/26 11:58:18;;;;;;;4.90;2.58;;;;;;;11.42;60.81;102179.22;5072132;28;20063;-80
2022/04/26 12:01:03;;;;;;;4.88;2.47;;;;;;;11.49;58.74;102186.06;5075004;28;20047;-80
2022/04/26 12:03:35;;;;;;;3.85;1.73;;;;;;;11.45;55.27;102182.66;5068604;28;20280;-80
2022/04/26 12:06:07;;;;;;;4.88;1.83;;;;;;;11.51;55.19;102189.50;5055393;28;20024;-80
2022/04/26 12:08:47;;;;;;;3.28;1.80;;;;;;;11.54;54.41;102189.44;5072101;28;20507;-80
2022/04/26 12:11:15;;;;;;;3.55;1.88;;;;;;;11.56;56.24;102182.41;5066807;28;20032;-80
2022/04/26 12:13:40;;;;;;;3.13;1.65;;;;;;;11.56;54.75;102181.56;5055806;28;20049;-80
2022/04/26 12:16:18;;;;;;;7.22;2.17;;;;;;;11.60;55.01;102191.06;5038430;28;20299;-80
2022/04/26 12:18:54;;;;;;;2.88;1.95;;;;;;;11.63;55.86;102183.13;5073039;28;20028;-80
2022/04/26 12:21:21;;;;;;;2.00;1.85;;;;;;;11.65;55.43;102186.59;5072161;28;20263;-80
2022/04/26 12:23:47;;;;;;;2.95;1.95;;;;;;;11.70;57.31;102189.97;5072316;28;20224;-80
2022/04/26 12:26:14;;;;;;;4.82;1.73;;;;;;;11.74;56.02;102188.13;5033393;28;20402;-80
2022/04/26 12:28:50;;;;;;;2.90;2.00;;;;;;;11.72;55.30;102193.41;5074960;28;20463;-80
2022/04/26 12:31:29;;;;;;;4.60;1.80;;;;;;;11.75;56.38;102195.09;5052644;28;20111;-80
2022/04/26 12:34:14;;;;;;;3.97;1.60;;;;;;;11.71;53.23;102199.53;5068740;28;20048;-80
2022/04/26 12:37:00;;;;;;;2.63;1.92;;;;;;;11.67;53.68;102195.28;5065166;28;20076;-80
2022/04/26 12:39:48;;;;;;;5.18;1.65;;;;;;;11.63;52.22;102198.88;5071445;28;20035;-79
2022/04/26 12:42:16;;;;;;;1.40;1.30;;;;;;;11.64;51.94;102201.47;5050105;28;20048;-80
2022/04/26 12:44:57;;;;;;;3.25;2.03;;;;;;;11.68;52.35;102197.00;5069173;28;20052;-80
2022/04/26 12:50:30;;;;;;;5.25;1.90;;;;;;;11.64;54.88;102201.47;5071652;28;20154;-80
2022/04/26 12:53:08;;;;;;;3.30;2.25;;;;;;;11.68;55.44;102210.13;5066488;28;20040;-80
2022/04/26 12:55:39;;;;;;;4.40;1.90;;;;;;;11.66;55.14;102206.66;5073289;28;20047;-80
2022/04/26 12:58:12;;;;;;;2.60;1.83;;;;;;;11.70;55.01;102214.44;5055621;28;20280;-80
2022/04/26 13:00:47;;;;;;;2.95;1.70;;;;;;;11.70;55.56;102206.56;5072117;28;20100;-80
2022/04/26 13:03:14;;;;;;;1.77;1.58;;;;;;;11.74;55.92;102209.13;5070224;28;20104;-80
2022/04/26 13:05:41;;;;;;;3.10;2.50;;;;;;;11.73;56.30;102210.88;5054048;28;20130;-80
2022/04/26 13:08:08;;;;;;;5.38;1.95;;;;;;;11.73;56.92;102216.13;5073572;28;20040;-80
2022/04/26 13:10:34;;;;;;;2.75;1.70;;;;;;;11.74;56.15;102220.47;5051516;28;20048;-80
2022/04/26 13:12:59;;;;;;;2.10;1.80;;;;;;;11.73;55.19;102216.13;5056834;28;20359;-80
2022/04/26 13:15:27;;;;;;;4.05;1.88;;;;;;;11.68;56.50;102226.72;5037017;28;20029;-80
2022/04/26 13:17:53;;;;;;;3.97;1.80;;;;;;;11.69;57.17;102222.34;5034013;28;20036;-80
2022/04/26 13:20:19;;;;;;;3.28;2.05;;;;;;;11.69;56.92;102215.31;5071312;28;20333;-80
2022/04/26 13:22:45;;;;;;;2.28;1.70;;;;;;;11.75;56.83;102224.84;5054374;28;20040;-80
2022/04/26 13:25:10;;;;;;;3.75;2.28;;;;;;;11.75;57.38;102221.31;5051140;28;20104;-80
2022/04/26 13:27:39;;;;;;;3.80;2.15;;;;;;;11.74;57.93;102215.22;5052020;28;20487;-80
2022/04/26 13:30:07;;;;;;;3.17;1.70;;;;;;;11.75;56.84;102214.34;5053656;28;20033;-80
2022/04/26 13:32:32;;;;;;;3.80;1.95;;;;;;;11.76;56.77;102220.44;5053482;28;20033;-80
2022/04/26 13:34:59;;;;;;;3.47;2.15;;;;;;;11.76;56.95;102212.56;5051438;28;20057;-80
2022/04/26 13:37:25;;;;;;;3.80;1.98;;;;;;;11.77;57.29;102227.41;5051821;28;20573;-80
2022/04/26 13:39:51;;;;;;;6.90;2.40;;;;;;;11.67;56.66;102225.00;5051402;28;20094;-80
2022/04/26 13:42:19;;;;;;;2.00;1.88;;;;;;;11.62;56.39;102229.47;5053312;28;20056;-80
2022/04/26 13:44:45;;;;;;;2.65;2.13;;;;;;;11.58;56.58;102221.72;5060939;28;20121;-80
2022/04/26 13:47:11;;;;;;;5.03;2.60;;;;;;;11.61;57.01;102217.28;5050419;28;20024;-80
2022/04/26 13:49:37;;;;;;;5.75;2.50;;;;;;;11.57;56.91;102218.25;5068405;28;20262;-80
2022/04/26 13:52:04;;;;;;;5.68;2.28;;;;;;;11.55;56.80;102220.06;5058572;28;20024;-80
2022/04/26 13:54:29;;;;;;;4.13;2.05;;;;;;;11.56;57.27;102216.50;5074757;28;20059;-80
2022/04/26 13:56:55;;;;;;;3.92;1.98;;;;;;;11.57;56.79;102218.25;5058623;28;20044;-80
2022/04/26 13:59:22;;;;;;;3.15;1.85;;;;;;;11.56;57.74;102216.50;5075871;28;20032;-80
2022/04/26 14:01:49;;;;;;;3.50;1.83;;;;;;;11.58;57.00;102219.09;5068934;28;20048;-80
2022/04/26 14:04:15;;;;;;;3.20;1.80;;;;;;;11.56;56.63;102218.28;5060973;28;20268;-80
2022/04/26 14:06:41;;;;;;;3.38;2.33;;;;;;;11.52;57.40;102220.97;5071208;28;20142;-80
2022/04/26 14:09:06;;;;;;;3.90;2.70;;;;;;;11.57;57.10;102220.00;5062589;28;20260;-80
2022/04/26 14:11:32;;;;;;;3.40;1.92;;;;;;;11.55;56.29;102221.78;5058509;28;20067;-80
2022/04/26 14:22:10;;;;;;;4.65;2.22;;;;;;;11.52;58.09;102225.34;5077130;28;20231;-80
2022/04/26 14:24:35;;;;;;;5.60;2.30;;;;;;;11.48;56.85;102228.97;5076318;28;20060;-80
2022/04/26 14:27:01;;;;;;;3.53;2.10;;;;;;;11.49;57.60;102217.53;5059943;28;20036;-80
2022/04/26 14:29:27;;;;;;;2.28;1.98;;;;;;;11.50;56.75;102228.00;5030819;28;20029;-80
2022/04/26 14:31:52;;;;;;;3.42;1.92;;;;;;;11.45;54.51;102234.25;5059582;28;20040;-80
2022/04/26 14:34:18;;;;;;;3.05;2.08;;;;;;;11.41;55.96;102215.09;5058655;28;20113;-80
2022/04/26 14:36:43;;;;;;;5.95;2.20;;;;;;;11.42;57.21;102222.06;5061512;28;20082;-80
2022/04/26 14:39:09;;;;;;;3.03;2.20;;;;;;;11.42;57.94;102219.44;5078173;28;20103;-80
2022/04/26 14:41:34;;;;;;;2.53;2.20;;;;;;;11.44;58.01;102227.28;5071919;28;20052;-80
2022/04/26 14:44:00;;;;;;;3.15;2.00;;;;;;;11.43;56.91;102220.31;5033485;28;20055;-80
2022/04/26 14:46:28;;;;;;;3.05;2.00;;;;;;;11.42;56.90;102232.56;5079377;28;20189;-80
2022/04/26 14:48:54;;;;;;;3.97;2.30;;;;;;;11.42;55.89;102224.69;5087912;28;20044;-80
2022/04/26 14:51:19;;;;;;;2.75;2.15;;;;;;;11.34;56.79;102222.22;5074086;28;20307;-80
2022/04/26 14:53:45;;;;;;;4.40;1.90;;;;;;;11.34;57.07;102222.22;5074915;28;21279;-80
2022/04/26 14:56:10;;;;;;;3.35;2.05;;;;;;;11.23;55.01;102232.09;5073909;28;20040;-80
2022/04/26 14:58:36;;;;;;;3.42;2.08;;;;;;;11.25;55.24;102226.81;5080562;28;20044;-80
2022/04/26 15:01:01;;;;;;;4.20;1.92;;;;;;;11.29;55.94;102231.97;5093006;28;20036;-80
2022/04/26 15:03:27;;;;;;;3.90;1.98;;;;;;;11.29;57.67;102234.56;5068507;28;20265;-80
2022/04/26 15:05:54;;;;;;;4.32;2.10;;;;;;;11.18;57.13;102233.94;5087538;28;20059;-80
2022/04/26 15:11:04;;;;;;;3.97;2.33;;;;;;;11.18;57.26;102233.09;5070661;28;20244;-80
2022/04/26 15:18:57;;;;;;;2.47;2.28;;;;;;;11.11;58.88;102224.47;5075654;28;20066;-80
2022/04/26 15:21:24;;;;;;;4.00;2.42;;;;;;;11.06;59.59;102226.31;5061648;28;20486;-80
2022/04/26 15:23:50;;;;;;;53.80;3.88;;;;;;;10.99;59.53;102230.84;5056551;28;20086;-80
2022/04/26 15:26:15;;;;;;;9.27;2.40;;;;;;;11.04;59.48;102226.38;5057462;28;20036;-79
2022/04/26 15:28:41;;;;;;;4.80;1.98;;;;;;;11.10;59.45;102228.88;5077632;28;20040;-79
2022/04/26 15:31:07;;;;;;;4.07;2.20;;;;;;;11.09;59.53;102231.53;5075556;28;20063;-79
2022/04/26 15:33:32;;;;;;;4.00;2.67;;;;;;;11.08;59.68;102227.19;5076100;28;20082;-79
2022/04/26 15:35:58;;;;;;;3.40;2.30;;;;;;;11.06;59.13;102239.44;5074468;28;20044;-80
2022/04/26 15:38:27;;;;;;;3.72;2.42;;;;;;;11.08;59.62;102233.28;5076020;28;20032;-79
2022/04/26 15:40:54;;;;;;;2.10;1.90;;;;;;;11.10;59.65;102230.63;5058995;28;20039;-79
2022/04/26 15:43:19;;;;;;;2.40;2.20;;;;;;;11.06;59.11;102234.19;5075452;28;20078;-79